Time;durP1;ratioP1;P1;durP2;ratioP2;P2;SDS_P1;SDS_P2;PMS_P1;PMS_P2;Temp;Humidity;BMP_temperature;BMP_pressure;BME280_temperature;BME280_humidity;BME280_pressure;Samples;Min_cycle;Max_cycle;Signal;HPM_P1;HPM_P2
2022/11/21 00:00:10;;;;;;;16.95;15.29;;;;;;;6.02;88.71;100472.91;463986;114;922550;-75
2022/11/21 00:01:19;;;;;;;16.85;15.19;;;;;;;6.05;88.80;100470.69;464096;114;923108;-75
2022/11/21 00:02:22;;;;;;;18.37;16.21;;;;;;;6.07;88.67;100467.77;463973;114;922768;-76
2022/11/21 00:03:25;;;;;;;18.19;16.27;;;;;;;6.08;88.69;100469.45;464146;114;922472;-76
2022/11/21 00:04:28;;;;;;;16.57;14.99;;;;;;;6.11;88.72;100472.64;464133;114;922824;-77
2022/11/21 00:05:32;;;;;;;17.35;15.76;;;;;;;6.11;88.72;100472.64;464052;114;923466;-76
2022/11/21 00:06:35;;;;;;;17.66;15.79;;;;;;;6.14;88.76;100463.29;463997;114;930540;-77
2022/11/21 00:07:39;;;;;;;17.92;16.06;;;;;;;6.15;88.74;100467.69;464106;114;922950;-77
2022/11/21 00:08:43;;;;;;;17.11;15.43;;;;;;;6.17;88.61;100469.19;464109;113;922507;-76
2022/11/21 00:09:45;;;;;;;17.05;15.42;;;;;;;6.18;88.57;100470.84;464068;114;922687;-76
2022/11/21 00:10:48;;;;;;;19.99;16.23;;;;;;;6.18;88.54;100470.84;464135;114;922629;-77
2022/11/21 00:11:51;;;;;;;21.43;16.27;;;;;;;6.18;88.46;100462.72;464178;114;922963;-77
2022/11/21 00:12:55;;;;;;;18.31;16.51;;;;;;;6.18;88.47;100462.72;464154;114;922496;-77
2022/11/21 00:13:58;;;;;;;17.08;15.46;;;;;;;6.19;88.50;100472.52;464070;114;922484;-75
2022/11/21 00:15:01;;;;;;;18.02;16.36;;;;;;;6.19;88.57;100469.81;464130;114;922604;-77
2022/11/21 00:16:08;;;;;;;16.04;14.43;;;;;;;6.22;88.61;100464.05;464118;114;922940;-76
2022/11/21 00:17:11;;;;;;;15.86;14.38;;;;;;;6.22;88.61;100464.05;456870;114;922438;-76
2022/11/21 00:18:14;;;;;;;17.60;15.93;;;;;;;6.23;88.61;100462.98;456094;116;922540;-76
2022/11/21 00:19:17;;;;;;;18.62;16.76;;;;;;;6.26;88.61;100467.20;456109;116;922967;-76
2022/11/21 00:20:21;;;;;;;18.28;16.58;;;;;;;6.27;88.69;100463.47;456100;116;922512;-76
2022/11/21 00:21:24;;;;;;;17.18;15.60;;;;;;;6.30;88.74;100465.78;447078;118;923077;-76
2022/11/21 00:22:26;;;;;;;17.64;15.56;;;;;;;6.33;88.75;100461.87;447538;116;922604;-76
2022/11/21 00:23:29;;;;;;;17.25;15.64;;;;;;;6.35;88.81;100462.50;456069;116;923333;-76
2022/11/21 00:24:32;;;;;;;17.44;15.74;;;;;;;6.35;88.68;100454.37;456080;116;922912;-76
2022/11/21 00:25:36;;;;;;;18.91;16.84;;;;;;;6.37;88.70;100460.45;456107;116;922562;-75
2022/11/21 00:26:39;;;;;;;18.10;16.37;;;;;;;6.38;88.70;100457.56;456034;116;922625;-76
2022/11/21 00:27:41;;;;;;;19.11;17.07;;;;;;;6.41;88.74;100459.03;456014;116;930458;-76
2022/11/21 00:28:44;;;;;;;18.44;16.69;;;;;;;6.43;88.73;100462.40;456086;116;922707;-76
2022/11/21 00:29:47;;;;;;;20.48;18.61;;;;;;;6.45;88.77;100452.23;457216;114;922589;-76
2022/11/21 00:30:50;;;;;;;20.44;17.34;;;;;;;6.46;88.74;100451.17;464201;114;922442;-76
2022/11/21 00:31:53;;;;;;;19.86;18.03;;;;;;;6.46;88.67;100446.59;464135;114;923000;-76
2022/11/21 00:32:59;;;;;;;19.75;17.73;;;;;;;6.46;88.66;100448.46;451804;116;922797;-76
2022/11/21 00:34:02;;;;;;;19.53;17.71;;;;;;;6.46;88.67;100449.30;462281;114;922531;-76
2022/11/21 00:35:06;;;;;;;20.44;18.34;;;;;;;6.48;88.71;100451.83;464180;114;922495;-77
2022/11/21 00:36:09;;;;;;;19.48;17.48;;;;;;;6.49;88.80;100457.06;464098;114;922509;-76
2022/11/21 00:37:12;;;;;;;20.74;17.54;;;;;;;6.51;88.76;100446.02;464151;114;922941;-77
2022/11/21 00:38:15;;;;;;;18.98;17.16;;;;;;;6.53;88.87;100455.64;464106;114;922519;-76
2022/11/21 00:39:18;;;;;;;19.96;17.97;;;;;;;6.54;88.75;100457.33;464137;114;922616;-76
2022/11/21 00:40:22;;;;;;;20.02;17.85;;;;;;;6.55;88.77;100453.59;464056;114;922483;-76
2022/11/21 00:41:25;;;;;;;17.23;15.71;;;;;;;6.58;88.77;100460.48;464159;114;922432;-76
2022/11/21 00:42:27;;;;;;;19.55;17.01;;;;;;;6.59;88.91;100451.33;464135;114;922798;-76
2022/11/21 00:43:31;;;;;;;20.72;18.45;;;;;;;6.61;88.83;100450.12;464147;114;923007;-76
2022/11/21 00:44:34;;;;;;;19.98;17.84;;;;;;;6.62;88.76;100457.19;464139;114;923457;-77
2022/11/21 00:45:37;;;;;;;18.42;16.51;;;;;;;6.63;88.81;100445.33;464152;114;922915;-77
2022/11/21 00:46:40;;;;;;;19.90;18.06;;;;;;;6.65;88.80;100453.27;463403;114;922722;-75
2022/11/21 00:47:43;;;;;;;18.44;16.59;;;;;;;6.66;88.89;100446.83;455943;116;923013;-76
2022/11/21 00:48:46;;;;;;;20.45;18.48;;;;;;;6.68;88.88;100450.16;456046;116;922522;-75
2022/11/21 00:49:49;;;;;;;18.77;17.07;;;;;;;6.70;88.95;100442.69;455994;115;922551;-76
2022/11/21 00:50:52;;;;;;;19.19;17.53;;;;;;;6.70;88.96;100443.53;456028;116;923148;-76
2022/11/21 00:51:55;;;;;;;18.94;17.21;;;;;;;6.74;88.88;100443.97;456028;116;922626;-76
2022/11/21 00:52:58;;;;;;;18.62;16.73;;;;;;;6.76;88.87;100441.08;456014;116;922721;-76
2022/11/21 00:54:01;;;;;;;19.69;17.67;;;;;;;6.76;88.86;100446.50;456025;116;922537;-76
2022/11/21 00:55:04;;;;;;;20.06;18.27;;;;;;;6.76;88.83;100438.38;456007;115;922783;-76
2022/11/21 00:56:07;;;;;;;18.66;17.12;;;;;;;6.78;88.91;100447.97;455957;116;922437;-75
2022/11/21 00:57:10;;;;;;;19.58;17.74;;;;;;;6.79;88.95;100446.09;456054;116;923237;-76
2022/11/21 00:58:13;;;;;;;19.10;17.29;;;;;;;6.81;88.98;100435.91;456039;116;922949;-76
2022/11/21 00:59:16;;;;;;;18.91;17.19;;;;;;;6.82;88.96;100433.02;456005;115;922974;-76
2022/11/21 01:00:20;;;;;;;19.72;17.93;;;;;;;6.84;88.99;100435.52;455974;116;922949;-76
2022/11/21 01:01:23;;;;;;;20.90;17.51;;;;;;;6.85;88.82;100429.06;456079;116;922497;-75
2022/11/21 01:02:26;;;;;;;19.17;17.50;;;;;;;6.86;88.84;100439.72;456040;116;923048;-77
2022/11/21 01:03:31;;;;;;;19.64;17.89;;;;;;;6.87;88.99;100435.98;456043;116;922513;-76
2022/11/21 01:04:35;;;;;;;19.31;17.66;;;;;;;6.89;88.99;100443.92;455844;116;923041;-76
2022/11/21 01:05:37;;;;;;;18.47;16.59;;;;;;;6.90;88.95;100440.16;455972;116;922596;-76
2022/11/21 01:06:40;;;;;;;19.14;17.34;;;;;;;6.91;88.95;100442.69;456084;116;922536;-76
2022/11/21 01:07:43;;;;;;;19.51;17.71;;;;;;;6.90;88.96;100449.12;456294;116;922501;-76
2022/11/21 01:08:46;;;;;;;21.21;17.55;;;;;;;6.93;88.89;100453.34;454304;115;922743;-76
2022/11/21 01:09:49;;;;;;;19.97;18.15;;;;;;;6.93;88.92;100454.18;449332;118;922693;-77
2022/11/21 01:10:52;;;;;;;19.37;17.39;;;;;;;6.94;88.93;100452.31;449312;118;922281;-76
2022/11/21 01:11:55;;;;;;;19.99;18.17;;;;;;;6.95;89.00;100457.52;449359;118;922491;-76
2022/11/21 01:12:58;;;;;;;18.65;17.16;;;;;;;6.97;89.04;100463.59;449337;118;922366;-76
2022/11/21 01:14:01;;;;;;;18.91;17.21;;;;;;;6.98;89.00;100450.87;449295;118;922402;-76
2022/11/21 01:15:05;;;;;;;20.50;18.41;;;;;;;6.99;89.07;100461.54;449317;118;922729;-76
2022/11/21 01:16:18;;;;;;;20.42;18.74;;;;;;;7.01;89.16;100450.48;449291;118;922220;-76
2022/11/21 01:17:21;;;;;;;20.60;18.72;;;;;;;7.03;89.19;100451.97;449072;118;922900;-76
2022/11/21 01:18:23;;;;;;;19.46;17.52;;;;;;;7.05;89.21;100449.08;449269;118;923111;-76
2022/11/21 01:19:26;;;;;;;19.78;17.82;;;;;;;7.06;89.24;100448.86;449267;118;923248;-76
2022/11/21 01:20:30;;;;;;;21.06;19.11;;;;;;;7.06;89.16;100456.99;449317;118;923075;-76
2022/11/21 01:21:33;;;;;;;20.14;18.16;;;;;;;7.07;89.12;100445.12;449263;118;922963;-76
2022/11/21 01:22:36;;;;;;;19.43;17.80;;;;;;;7.08;89.17;100443.25;449298;118;922176;-76
2022/11/21 01:23:39;;;;;;;20.66;18.87;;;;;;;7.10;89.20;100444.75;449228;118;922450;-77
2022/11/21 01:24:41;;;;;;;20.85;18.69;;;;;;;7.11;89.21;100440.16;449220;118;922506;-76
2022/11/21 04:54:14;;;;;;;13.98;12.89;;;;;;;6.90;98.39;100307.36;464904;110;947441;-76
2022/11/21 04:55:18;;;;;;;13.09;12.03;;;;;;;6.88;98.10;100304.87;456955;113;922547;-77
2022/11/21 04:56:22;;;;;;;14.16;12.96;;;;;;;6.96;97.86;100312.83;467005;111;922972;-74
2022/11/21 04:57:28;;;;;;;13.62;12.51;;;;;;;7.04;97.81;100312.70;468680;111;922666;-76
2022/11/21 04:58:31;;;;;;;15.37;12.43;;;;;;;7.11;97.62;100315.45;467064;111;922661;-81
2022/11/21 04:59:34;;;;;;;14.74;13.38;;;;;;;7.19;97.47;100319.86;467008;111;922639;-79
2022/11/21 05:00:37;;;;;;;11.63;10.68;;;;;;;7.24;97.40;100317.39;467627;111;923040;-78
2022/11/21 05:01:39;;;;;;;14.53;13.14;;;;;;;7.28;97.37;100326.79;466686;111;922769;-81
2022/11/21 05:02:43;;;;;;;16.76;13.69;;;;;;;7.33;97.20;100327.86;467106;111;923222;-76
2022/11/21 05:03:46;;;;;;;16.26;14.94;;;;;;;7.39;97.25;100335.20;466859;111;923215;-74
2022/11/21 05:04:49;;;;;;;15.09;13.88;;;;;;;7.44;97.04;100337.34;468154;111;923589;-76
2022/11/21 05:05:52;;;;;;;14.53;13.40;;;;;;;7.48;96.89;100338.61;467872;111;922557;-76
2022/11/21 05:06:54;;;;;;;13.68;12.55;;;;;;;7.50;96.84;100336.51;467865;111;922789;-76
2022/11/21 05:07:57;;;;;;;14.43;13.11;;;;;;;7.53;96.68;100330.70;467482;111;922742;-76
2022/11/21 05:09:00;;;;;;;11.24;10.34;;;;;;;7.58;96.69;100325.51;459245;113;923441;-75
2022/11/21 05:10:05;;;;;;;11.85;10.90;;;;;;;7.61;96.56;100324.28;461076;111;922610;-76
2022/11/21 05:13:53;;;;;;;11.42;10.49;;;;;;;7.75;96.76;100326.00;466411;111;923152;-76
2022/11/21 05:14:56;;;;;;;12.87;11.66;;;;;;;7.79;96.68;100327.26;467214;111;922591;-75
2022/11/21 05:15:59;;;;;;;12.68;11.48;;;;;;;7.83;96.65;100326.64;467064;111;923140;-76
2022/11/21 05:17:02;;;;;;;13.36;12.10;;;;;;;7.87;96.58;100335.23;467202;111;922636;-76
2022/11/21 05:18:04;;;;;;;13.01;11.86;;;;;;;7.90;96.50;100341.09;466969;111;922644;-76
2022/11/21 05:19:08;;;;;;;13.78;11.53;;;;;;;7.93;96.44;100334.42;468254;111;922481;-76
2022/11/21 05:20:13;;;;;;;13.86;12.57;;;;;;;7.98;96.54;100337.36;467062;111;922942;-80
2022/11/21 05:21:16;;;;;;;12.61;11.11;;;;;;;8.03;96.46;100339.46;466869;111;923117;-80
2022/11/21 05:22:19;;;;;;;11.90;10.78;;;;;;;8.05;96.48;100338.20;467766;111;922515;-80
2022/11/21 05:23:22;;;;;;;12.91;11.60;;;;;;;8.10;96.47;100343.05;467652;111;922661;-79
2022/11/21 05:24:25;;;;;;;11.66;10.63;;;;;;;8.14;96.52;100345.14;467741;111;922494;-79
2022/11/21 05:25:28;;;;;;;11.03;9.81;;;;;;;8.19;96.42;100329.06;467928;111;922563;-79
2022/11/21 05:26:31;;;;;;;11.74;9.64;;;;;;;8.25;96.49;100332.84;467540;111;930298;-80
2022/11/21 05:27:34;;;;;;;10.58;9.56;;;;;;;8.29;96.41;100331.38;466341;111;922917;-79
2022/11/21 05:28:37;;;;;;;12.83;10.63;;;;;;;8.32;96.32;100331.82;466624;111;922553;-79
2022/11/21 05:29:40;;;;;;;10.66;9.66;;;;;;;8.35;96.17;100330.59;466525;111;923164;-78
2022/11/21 05:30:43;;;;;;;10.07;8.88;;;;;;;8.38;96.23;100333.72;466522;111;923016;-79
2022/11/21 05:31:46;;;;;;;10.15;9.21;;;;;;;8.42;96.12;100336.88;468952;111;922760;-79
2022/11/21 05:32:49;;;;;;;11.22;10.17;;;;;;;8.46;96.20;100335.41;467948;111;922588;-80
2022/11/21 05:33:52;;;;;;;10.14;9.18;;;;;;;8.50;96.29;100335.82;467549;111;922853;-78
2022/11/21 05:35:21;;;;;;;9.59;8.76;;;;;;;8.67;96.23;100337.09;495966;105;947188;-79
2022/11/21 05:36:24;;;;;;;10.31;8.25;;;;;;;8.59;96.30;100324.56;486715;107;923153;-79
2022/11/21 05:37:27;;;;;;;9.72;8.80;;;;;;;8.64;96.33;100330.20;485867;108;923185;-79
2022/11/21 05:38:30;;;;;;;10.64;8.88;;;;;;;8.67;96.32;100327.06;484202;108;923299;-79
2022/11/21 05:39:33;;;;;;;9.53;8.29;;;;;;;8.71;96.34;100327.50;478562;110;922974;-78
2022/11/21 05:40:36;;;;;;;10.21;9.26;;;;;;;8.74;96.35;100329.78;476657;109;923418;-80
2022/11/21 05:41:39;;;;;;;11.41;8.34;;;;;;;8.77;96.21;100341.06;473823;110;922520;-79
2022/11/21 05:44:03;;;;;;;13.30;9.12;;;;;;;8.85;96.30;100322.88;466027;111;922694;-79
2022/11/21 05:45:07;;;;;;;13.74;8.46;;;;;;;8.90;96.29;100328.52;471079;109;923135;-80
2022/11/21 05:46:12;;;;;;;9.30;8.46;;;;;;;8.92;96.46;100327.28;479348;109;923074;-78
2022/11/21 05:47:15;;;;;;;11.12;9.66;;;;;;;8.97;96.52;100330.20;478165;110;922854;-78
2022/11/21 05:48:18;;;;;;;10.25;9.20;;;;;;;9.02;96.58;100329.56;478449;110;930610;-78
2022/11/21 05:49:21;;;;;;;13.41;9.33;;;;;;;9.05;96.63;100335.41;477974;109;922734;-79
2022/11/21 05:50:24;;;;;;;9.85;8.82;;;;;;;9.09;96.73;100331.24;477108;110;923455;-79
2022/11/21 05:51:27;;;;;;;13.08;9.35;;;;;;;9.14;96.82;100334.16;478930;110;922576;-78
2022/11/21 05:52:30;;;;;;;13.38;8.83;;;;;;;9.18;96.93;100329.96;478504;109;923517;-79
2022/11/21 05:53:34;;;;;;;11.39;8.53;;;;;;;9.23;96.90;100331.20;475531;109;922916;-78
2022/11/21 05:54:37;;;;;;;14.68;8.96;;;;;;;9.26;96.92;100331.63;475811;110;923233;-79
2022/11/21 05:55:42;;;;;;;11.58;8.70;;;;;;;9.31;96.99;100330.98;477203;110;922544;-79
2022/11/21 05:56:44;;;;;;;14.90;9.19;;;;;;;9.34;96.92;100334.11;478618;110;922924;-79
2022/11/21 05:57:47;;;;;;;11.74;8.59;;;;;;;9.37;96.84;100328.23;473744;109;922784;-79
2022/11/21 05:58:50;;;;;;;12.13;8.38;;;;;;;9.39;96.89;100328.86;472205;109;923315;-81
2022/11/21 05:59:53;;;;;;;9.33;8.11;;;;;;;9.41;96.77;100329.50;474512;110;922908;-79
2022/11/21 06:00:57;;;;;;;9.75;7.97;;;;;;;9.42;96.69;100317.56;479268;110;922530;-77
2022/11/21 06:03:27;;;;;;;12.73;7.93;;;;;;;9.47;96.66;100333.25;478308;109;922811;-79
2022/11/21 06:04:30;;;;;;;9.87;7.02;;;;;;;9.49;96.58;100334.69;474682;109;922565;-79
2022/11/21 06:05:33;;;;;;;11.67;7.49;;;;;;;9.50;96.54;100330.92;478050;109;922549;-79
2022/11/21 06:06:36;;;;;;;13.08;7.39;;;;;;;9.51;96.42;100329.88;474526;110;922538;-79
2022/11/21 06:07:39;;;;;;;10.32;7.03;;;;;;;9.52;96.43;100331.56;476784;109;922726;-80
2022/11/21 06:08:43;;;;;;;10.98;7.17;;;;;;;9.54;96.34;100340.33;480243;109;923044;-80
2022/11/21 06:09:46;;;;;;;10.22;7.33;;;;;;;9.56;96.35;100332.80;479355;109;922501;-79
2022/11/21 06:10:49;;;;;;;13.61;7.85;;;;;;;9.58;96.35;100338.87;468611;111;930613;-78
2022/11/21 06:11:52;;;;;;;8.84;7.03;;;;;;;9.60;96.34;100338.63;472600;110;922521;-80
2022/11/21 06:13:00;;;;;;;12.01;7.16;;;;;;;9.61;96.40;100330.27;474626;109;922366;-79
2022/11/21 06:14:03;;;;;;;13.42;7.53;;;;;;;9.65;96.31;100335.30;473418;111;922978;-79
2022/11/21 06:15:07;;;;;;;11.65;6.76;;;;;;;9.67;96.42;100342.18;473541;111;923074;-79
2022/11/21 06:16:12;;;;;;;9.07;7.01;;;;;;;9.70;96.51;100338.20;473073;109;923107;-80
2022/11/21 06:17:15;;;;;;;15.01;6.86;;;;;;;9.72;96.46;100342.37;471880;111;923264;-78
2022/11/21 06:18:18;;;;;;;10.82;6.43;;;;;;;9.76;96.50;100342.80;472737;109;922535;-79
2022/11/21 06:19:21;;;;;;;10.89;6.79;;;;;;;9.78;96.43;100341.52;478317;110;922736;-79
2022/11/21 06:20:24;;;;;;;12.08;7.31;;;;;;;9.82;96.54;100341.91;468638;112;923584;-79
2022/11/21 06:21:28;;;;;;;13.14;6.97;;;;;;;9.83;96.49;100338.97;476695;110;922562;-80
2022/11/21 06:22:31;;;;;;;8.90;6.84;;;;;;;9.86;96.55;100340.44;474687;110;922963;-79
2022/11/21 06:23:35;;;;;;;12.48;7.71;;;;;;;9.89;96.56;100340.00;477345;109;922537;-79
2022/11/21 06:24:38;;;;;;;13.66;7.79;;;;;;;9.91;96.47;100346.91;475475;110;922859;-80
2022/11/21 06:25:42;;;;;;;13.05;7.81;;;;;;;9.94;96.40;100351.08;478158;110;930665;-79
2022/11/21 06:26:45;;;;;;;12.59;7.18;;;;;;;9.97;96.43;100339.77;478139;108;922791;-79
2022/11/21 06:27:48;;;;;;;16.87;7.59;;;;;;;9.98;96.31;100349.58;478484;110;923025;-80
2022/11/21 06:28:51;;;;;;;15.02;7.33;;;;;;;10.00;96.38;100350.21;477298;109;922988;-81
2022/11/21 06:29:54;;;;;;;9.42;6.93;;;;;;;10.02;96.30;100342.67;476350;109;922731;-79
2022/11/21 06:31:05;;;;;;;11.89;6.91;;;;;;;10.04;96.24;100346.83;478688;110;922956;-78
2022/11/21 06:32:09;;;;;;;9.11;7.13;;;;;;;10.05;96.24;100340.34;478699;109;922578;-79
2022/11/21 06:33:13;;;;;;;11.21;7.16;;;;;;;10.08;96.24;100344.53;476818;110;923217;-77
2022/11/21 06:34:15;;;;;;;15.52;7.18;;;;;;;10.11;96.19;100335.91;476696;110;930605;-80
2022/11/21 06:35:18;;;;;;;12.08;6.98;;;;;;;10.13;96.22;100333.81;478551;110;922569;-78
2022/11/21 06:36:22;;;;;;;9.43;6.67;;;;;;;10.16;96.19;100324.35;478982;109;922765;-79
2022/11/21 06:37:25;;;;;;;15.05;7.63;;;;;;;10.19;96.21;100329.41;473527;109;923038;-80
2022/11/21 06:38:28;;;;;;;10.68;6.69;;;;;;;10.20;96.12;100318.27;475426;110;922653;-79
2022/11/21 06:39:30;;;;;;;12.85;7.46;;;;;;;10.22;96.12;100318.06;474509;109;922605;-78
2022/11/21 06:40:34;;;;;;;10.49;6.47;;;;;;;10.23;96.13;100315.13;473828;109;922611;-78
2022/11/21 06:41:37;;;;;;;9.04;6.86;;;;;;;10.25;96.04;100314.92;475253;109;922675;-81
2022/11/21 06:42:40;;;;;;;9.29;6.61;;;;;;;10.27;96.01;100318.24;471317;108;922533;-80
2022/11/21 06:43:43;;;;;;;9.48;5.98;;;;;;;10.29;96.01;100329.77;478736;109;922556;-79
2022/11/21 06:44:47;;;;;;;10.08;6.41;;;;;;;10.30;96.13;100309.64;476752;109;922487;-78
2022/11/21 06:45:50;;;;;;;12.23;7.69;;;;;;;10.32;96.09;100319.25;473001;111;930587;-77
2022/11/21 06:46:53;;;;;;;8.26;6.61;;;;;;;10.34;96.09;100325.33;463229;113;922662;-78
2022/11/21 06:47:58;;;;;;;11.03;6.62;;;;;;;10.36;95.97;100323.23;467832;112;922464;-79
2022/11/21 06:49:01;;;;;;;13.94;7.89;;;;;;;10.37;96.05;100313.14;452637;112;930836;-81
2022/11/21 06:50:05;;;;;;;10.91;7.54;;;;;;;10.38;95.95;100315.66;454879;113;922722;-81
2022/11/21 06:51:22;;;;;;;14.52;7.07;;;;;;;10.40;95.87;100307.27;476655;110;922714;-77
2022/11/21 06:52:25;;;;;;;17.04;7.27;;;;;;;10.41;95.80;100309.78;477865;110;922622;-80
2022/11/21 06:53:28;;;;;;;11.60;6.51;;;;;;;10.41;95.71;100314.39;474498;109;923293;-80
2022/11/21 06:54:31;;;;;;;11.61;6.26;;;;;;;10.39;95.60;100309.16;474107;111;922488;-78
2022/11/21 06:55:34;;;;;;;10.55;7.04;;;;;;;10.38;95.58;100312.93;477958;110;922460;-80
2022/11/21 06:56:37;;;;;;;12.87;6.87;;;;;;;10.37;95.58;100311.25;481236;110;923023;-79
2022/11/21 06:57:41;;;;;;;13.02;7.60;;;;;;;10.36;95.51;100314.22;468508;111;922510;-81
2022/11/21 06:58:44;;;;;;;10.21;7.24;;;;;;;10.36;95.51;100314.22;470685;110;922957;-79
2022/11/21 06:59:47;;;;;;;13.00;7.10;;;;;;;10.36;95.54;100308.77;470155;111;922458;-78
2022/11/21 07:00:50;;;;;;;12.51;6.69;;;;;;;10.36;95.70;100312.33;473346;112;922538;-79
2022/11/21 07:01:53;;;;;;;14.27;7.02;;;;;;;10.38;95.72;100312.09;470143;111;922039;-78
2022/11/21 07:03:01;;;;;;;12.34;7.28;;;;;;;10.38;95.71;100307.48;472363;111;929666;-79
2022/11/21 07:04:06;;;;;;;11.66;7.49;;;;;;;10.41;95.81;100311.67;470557;113;922200;-79
2022/11/21 07:05:09;;;;;;;12.44;6.71;;;;;;;10.42;95.67;100308.70;473141;111;922105;-79
2022/11/21 07:06:12;;;;;;;9.64;7.40;;;;;;;10.44;95.59;100308.48;474641;111;922296;-80
2022/11/21 07:07:15;;;;;;;11.22;6.95;;;;;;;10.48;95.55;100308.87;473854;110;922555;-78
2022/11/21 07:08:18;;;;;;;15.64;9.06;;;;;;;10.49;95.46;100310.55;469815;109;921843;-78
2022/11/21 07:09:21;;;;;;;13.55;9.46;;;;;;;10.50;95.42;100315.78;468091;110;922566;-77
2022/11/21 07:10:26;;;;;;;14.26;9.09;;;;;;;10.51;95.41;100311.17;468355;109;921918;-78
2022/11/21 07:11:29;;;;;;;13.98;10.09;;;;;;;10.51;95.30;100312.01;468253;112;922275;-79
2022/11/21 07:13:55;;;;;;;12.97;10.55;;;;;;;10.53;95.21;100311.80;472121;110;922114;-78
2022/11/21 07:14:58;;;;;;;13.52;11.68;;;;;;;10.54;95.07;100307.98;468490;112;922255;-79
2022/11/21 07:16:07;;;;;;;11.97;10.79;;;;;;;10.54;94.98;100305.27;467811;112;930132;-79
2022/11/21 07:17:11;;;;;;;13.12;10.39;;;;;;;10.53;94.96;100311.80;477610;111;922634;-78
2022/11/21 07:18:14;;;;;;;12.17;9.66;;;;;;;10.54;94.91;100311.55;478863;111;922078;-79
2022/11/21 07:19:17;;;;;;;12.87;11.43;;;;;;;10.53;94.90;100306.34;477671;111;922602;-77
2022/11/21 07:20:21;;;;;;;13.06;9.74;;;;;;;10.53;94.86;100306.34;476624;111;922037;-78
2022/11/21 07:21:24;;;;;;;15.83;11.03;;;;;;;10.54;94.92;100302.53;475307;110;922703;-78
2022/11/21 07:22:27;;;;;;;16.86;11.21;;;;;;;10.54;94.95;100303.38;478939;111;923170;-79
2022/11/21 07:23:31;;;;;;;13.72;9.61;;;;;;;10.56;95.00;100297.70;478812;111;922843;-78
2022/11/21 07:24:34;;;;;;;14.17;9.68;;;;;;;10.58;95.08;100301.90;475294;110;922716;-79
2022/11/21 07:25:38;;;;;;;10.89;9.82;;;;;;;10.60;95.26;100293.48;476692;110;929911;-79
2022/11/21 07:26:41;;;;;;;13.09;9.02;;;;;;;10.63;95.31;100288.44;475085;110;922627;-79
2022/11/21 07:27:44;;;;;;;14.51;9.58;;;;;;;10.65;95.25;100286.30;473880;110;922602;-78
2022/11/21 07:28:47;;;;;;;11.12;8.65;;;;;;;10.69;95.16;100286.70;477353;110;922249;-78
2022/11/21 07:29:50;;;;;;;14.09;9.81;;;;;;;10.71;95.14;100287.30;474400;110;922022;-78
2022/11/21 07:30:56;;;;;;;15.47;9.26;;;;;;;10.72;95.13;100284.36;475215;111;922440;-79
2022/11/21 07:31:59;;;;;;;10.99;7.99;;;;;;;10.74;95.21;100286.88;480428;110;922174;-75
2022/11/21 07:33:05;;;;;;;12.46;8.73;;;;;;;10.76;95.27;100287.47;467648;109;922479;-77
2022/11/21 07:34:08;;;;;;;13.33;8.31;;;;;;;10.78;95.27;100286.20;463707;114;923084;-79
2022/11/21 07:35:11;;;;;;;11.87;7.96;;;;;;;10.80;95.26;100285.98;462025;114;922527;-78
2022/11/21 07:36:14;;;;;;;11.86;7.32;;;;;;;10.82;95.27;100283.84;476068;110;922506;-80
2022/11/21 07:37:17;;;;;;;10.68;7.53;;;;;;;10.84;95.27;100288.03;473195;110;923051;-78
2022/11/21 07:38:20;;;;;;;14.53;7.70;;;;;;;10.86;95.27;100288.63;473144;110;922462;-79
2022/11/21 07:39:22;;;;;;;13.43;7.45;;;;;;;10.88;95.35;100289.25;476996;110;923339;-79
2022/11/21 07:40:25;;;;;;;12.59;7.92;;;;;;;10.92;95.28;100288.78;479639;110;922913;-79
2022/11/21 07:41:28;;;;;;;13.21;7.27;;;;;;;10.94;95.25;100294.86;479125;110;922986;-79
2022/11/21 07:42:32;;;;;;;12.29;7.36;;;;;;;10.96;95.27;100292.76;473301;112;923027;-81
2022/11/21 07:43:35;;;;;;;10.53;7.37;;;;;;;10.98;95.23;100283.27;474100;112;922669;-79
2022/11/21 07:44:38;;;;;;;15.51;7.04;;;;;;;10.98;95.16;100288.73;474384;110;930448;-79
2022/11/21 07:45:41;;;;;;;11.68;7.47;;;;;;;10.98;95.08;100286.00;479653;110;922841;-80
2022/11/21 07:46:44;;;;;;;11.14;7.17;;;;;;;10.99;94.97;100286.84;479631;110;922536;-80
2022/11/21 07:47:47;;;;;;;12.29;7.62;;;;;;;10.99;95.00;100286.84;475108;110;923012;-79
2022/11/21 07:48:50;;;;;;;12.76;7.61;;;;;;;10.98;95.01;100275.09;478103;110;922779;-79
2022/11/21 07:49:53;;;;;;;9.72;6.99;;;;;;;10.99;94.92;100274.03;475302;110;922439;-79
2022/11/21 07:50:56;;;;;;;9.34;6.69;;;;;;;10.98;94.95;100277.81;474200;112;922828;-81
2022/11/21 07:51:59;;;;;;;13.13;7.36;;;;;;;10.98;94.80;100280.55;479168;110;922424;-78
2022/11/21 07:53:06;;;;;;;9.93;7.03;;;;;;;10.98;94.84;100277.81;475192;110;922948;-79
2022/11/21 07:54:09;;;;;;;12.06;7.00;;;;;;;10.99;94.88;100281.38;478918;110;922457;-79
2022/11/21 07:55:12;;;;;;;12.59;7.55;;;;;;;10.99;94.91;100276.77;474460;110;922377;-79
2022/11/21 07:56:16;;;;;;;12.56;6.74;;;;;;;11.00;94.90;100278.44;473878;110;922482;-81
2022/11/21 07:57:19;;;;;;;12.58;6.90;;;;;;;11.02;94.94;100287.24;474981;110;930396;-77
2022/11/21 07:58:22;;;;;;;15.12;7.43;;;;;;;11.04;94.96;100282.38;475882;110;922437;-81
2022/11/21 07:59:25;;;;;;;10.98;7.88;;;;;;;11.06;94.93;100279.43;479549;110;922800;-79
2022/11/21 08:00:31;;;;;;;11.92;7.04;;;;;;;11.08;94.95;100280.86;479438;110;922591;-79
2022/11/21 08:01:34;;;;;;;9.06;6.68;;;;;;;11.10;95.05;100284.20;479371;110;922953;-79
2022/11/21 08:02:37;;;;;;;9.41;7.31;;;;;;;11.13;94.94;100281.05;479494;110;930427;-79
2022/11/21 08:03:40;;;;;;;13.31;7.80;;;;;;;11.15;94.94;100278.91;477872;110;922484;-79
2022/11/21 08:04:43;;;;;;;13.59;7.14;;;;;;;11.17;94.87;100270.50;474871;111;922460;-79
2022/11/21 08:05:45;;;;;;;10.01;7.40;;;;;;;11.18;94.92;100270.28;472107;112;922451;-78
2022/11/21 08:06:49;;;;;;;9.82;7.12;;;;;;;11.22;94.96;100267.92;474718;111;922430;-79
2022/11/21 08:07:52;;;;;;;9.38;7.42;;;;;;;11.25;94.95;100270.19;470028;111;922431;-79
2022/11/21 08:08:55;;;;;;;14.73;7.58;;;;;;;11.27;95.04;100273.53;469583;113;922508;-82
2022/11/21 08:09:58;;;;;;;9.18;7.61;;;;;;;11.30;94.98;100273.91;469513;113;922493;-78
2022/11/21 08:11:04;;;;;;;11.43;7.64;;;;;;;11.32;94.80;100273.69;471217;112;922520;-79
2022/11/21 08:12:07;;;;;;;16.18;7.52;;;;;;;11.34;94.83;100265.28;474080;112;922503;-80
2022/11/21 08:13:11;;;;;;;10.86;6.84;;;;;;;11.37;94.66;100262.08;474645;111;922483;-82
2022/11/21 08:14:15;;;;;;;10.78;7.92;;;;;;;11.38;94.64;100261.02;474038;111;930901;-80
2022/11/21 08:15:18;;;;;;;10.29;7.00;;;;;;;11.38;94.62;100261.86;474192;112;922458;-79
2022/11/21 08:16:23;;;;;;;11.56;6.97;;;;;;;11.40;94.58;100264.37;474597;110;930494;-78
2022/11/21 08:17:26;;;;;;;11.03;7.68;;;;;;;11.42;94.54;100256.77;481744;109;922458;-79
2022/11/21 08:18:29;;;;;;;11.34;7.03;;;;;;;11.43;94.63;100263.90;481868;109;923105;-79
2022/11/21 08:19:32;;;;;;;10.95;7.40;;;;;;;11.47;94.62;100259.64;481893;109;922995;-79
2022/11/21 08:20:35;;;;;;;9.86;6.60;;;;;;;11.48;94.49;100267.61;481527;109;922601;-79
2022/11/21 08:21:38;;;;;;;9.12;6.51;;;;;;;11.50;94.51;100262.77;478903;110;922621;-79
2022/11/21 08:22:41;;;;;;;12.42;6.98;;;;;;;11.52;94.55;100266.09;479846;109;922501;-79
2022/11/21 08:23:44;;;;;;;11.09;6.66;;;;;;;11.55;94.42;100264.81;476472;111;923313;-79
2022/11/21 08:24:47;;;;;;;13.19;7.06;;;;;;;11.58;94.40;100258.88;478292;109;922520;-78